Turman, Indiana
Current Conditions -  °F | °C
As of 10:15 PM on Sunday 21 Dec 2014 (Local Time) from KRSV Reporting Station
Clear Clear  
Wind Chill: 26°   Ceiling: Unl
Heat Index: 33°   Visibility: 7mi
Dew Point: 29°   Wind: 8mph
Humidity: 87%   Direction: 120°ESE
Pressure: 30.07"   Gusts: NA
Location:  39.1044°N, 87.4347°W
Report Text: KRSV 220315Z AUTO 12007KT 7SM CLR 01/M01 A3007 RMK AO2 T00051015
Loading
Personal Weather Stations






























Interactive Weather Map New forecast layout! Learn more

10-Day Weather Forecast

Advertisements
Track Severe Weather on mobile